createdAt,value
2022-09-09T00:02:02.868Z,17.10
2022-09-09T00:04:35.423Z,16.44
2022-09-09T00:07:20.572Z,16.65
2022-09-09T00:10:06.602Z,16.58
2022-09-09T00:12:52.522Z,16.67
2022-09-09T00:15:24.534Z,16.00
2022-09-09T00:18:01.814Z,16.49
2022-09-09T00:20:59.146Z,16.53
2022-09-09T00:23:54.771Z,16.56
2022-09-09T00:26:36.074Z,15.69
2022-09-09T00:29:09.466Z,16.60
2022-09-09T00:31:38.219Z,16.59
2022-09-09T00:34:19.772Z,15.49
2022-09-09T00:36:48.760Z,16.58
2022-09-09T00:39:38.751Z,16.18
2022-09-09T00:42:14.398Z,16.82
2022-09-09T00:45:10.913Z,15.35
2022-09-09T00:47:44.734Z,16.89
2022-09-09T00:50:19.338Z,16.87
2022-09-09T00:52:58.582Z,16.88
2022-09-09T00:55:34.252Z,16.80
2022-09-09T00:58:03.032Z,15.53
2022-09-09T01:00:34.575Z,16.47
2022-09-09T01:03:22.625Z,16.64
2022-09-09T01:06:06.034Z,16.61
2022-09-09T01:08:45.164Z,16.22
2022-09-09T01:11:43.591Z,16.46
2022-09-09T01:14:33.784Z,16.73
2022-09-09T01:17:10.870Z,16.34
2022-09-09T01:20:05.427Z,16.65
2022-09-09T01:22:59.184Z,15.85
2022-09-09T01:25:45.453Z,16.30
2022-09-09T01:28:27.529Z,15.77
2022-09-09T01:31:00.863Z,15.34
2022-09-09T01:33:32.763Z,16.02
2022-09-09T01:36:08.779Z,15.91
2022-09-09T01:38:43.102Z,14.94
2022-09-09T01:41:10.069Z,15.14
2022-09-09T01:43:44.565Z,14.81
2022-09-09T01:46:18.713Z,15.11
2022-09-09T01:48:46.353Z,15.76
2022-09-09T01:51:12.985Z,14.64
2022-09-09T01:53:44.060Z,14.60
2022-09-09T01:56:20.201Z,15.80
2022-09-09T01:59:22.048Z,14.74
2022-09-09T02:01:55.260Z,15.99
2022-09-09T02:04:48.334Z,15.05
2022-09-09T02:07:43.683Z,16.10
2022-09-09T02:10:46.591Z,16.13
2022-09-09T02:13:30.207Z,15.13
2022-09-09T02:16:01.076Z,14.98
2022-09-09T02:18:41.579Z,15.76
2022-09-09T02:21:12.802Z,14.70
2022-09-09T02:23:42.748Z,16.13
2022-09-09T02:26:15.882Z,14.89
2022-09-09T02:28:43.469Z,16.11
2022-09-09T02:31:10.354Z,16.08
2022-09-09T02:33:46.331Z,16.11
2022-09-09T02:36:17.097Z,16.11
2022-09-09T02:38:51.414Z,16.08
2022-09-09T02:41:23.886Z,15.87
2022-09-09T02:43:50.466Z,15.79
2022-09-09T02:46:38.541Z,16.04
2022-09-09T02:49:11.035Z,15.63
2022-09-09T02:52:03.129Z,15.98
2022-09-09T02:54:37.114Z,15.72
2022-09-09T02:57:29.878Z,15.03
2022-09-09T03:00:02.368Z,14.66
2022-09-09T03:02:32.697Z,15.99
2022-09-09T03:05:06.041Z,16.01
2022-09-09T03:07:32.725Z,16.04
2022-09-09T03:09:59.683Z,16.05
2022-09-09T03:12:27.976Z,15.60
2022-09-09T03:14:54.590Z,16.06
2022-09-09T03:17:22.035Z,15.67
2022-09-09T03:19:55.416Z,16.09
2022-09-09T03:22:22.515Z,15.84
2022-09-09T03:24:49.388Z,14.21
2022-09-09T03:27:17.091Z,16.11
2022-09-09T03:29:45.914Z,16.11
2022-09-09T03:32:18.483Z,16.11
2022-09-09T03:34:45.513Z,16.15
2022-09-09T03:37:13.882Z,16.14
2022-09-09T03:39:40.959Z,16.13
2022-09-09T03:42:09.272Z,16.15
2022-09-09T03:44:35.948Z,16.14
2022-09-09T03:47:02.926Z,15.90
2022-09-09T03:49:30.058Z,15.23
2022-09-09T03:51:58.077Z,15.58
2022-09-09T03:54:29.330Z,15.30
2022-09-09T03:56:56.560Z,15.34
2022-09-09T03:59:24.032Z,16.13
2022-09-09T04:01:50.890Z,15.47
2022-09-09T04:04:17.554Z,16.14
2022-09-09T04:06:44.213Z,15.46
2022-09-09T04:09:11.084Z,16.12
2022-09-09T04:11:38.079Z,15.89
2022-09-09T04:14:06.961Z,15.73
2022-09-09T04:16:35.915Z,15.72
2022-09-09T04:19:05.125Z,15.52
2022-09-09T04:21:32.150Z,15.28
2022-09-09T04:24:00.894Z,15.09
2022-09-09T04:26:27.788Z,15.08
2022-09-09T04:28:54.469Z,16.16
2022-09-09T04:31:24.749Z,15.38
2022-09-09T04:33:57.173Z,14.50
2022-09-09T04:36:25.328Z,15.18
2022-09-09T04:38:56.807Z,15.97
2022-09-09T04:41:23.861Z,15.32
2022-09-09T04:43:54.446Z,16.17
2022-09-09T04:46:23.715Z,15.63
2022-09-09T04:48:51.350Z,15.24
2022-09-09T04:51:19.016Z,16.19
2022-09-09T04:53:49.579Z,16.18
2022-09-09T04:56:18.265Z,15.99
2022-09-09T04:58:51.792Z,15.41
2022-09-09T05:01:23.213Z,15.43
2022-09-09T05:03:52.990Z,15.04
2022-09-09T05:06:23.226Z,15.03
2022-09-09T05:08:54.148Z,15.51
2022-09-09T05:11:28.714Z,15.34
2022-09-09T05:14:00.524Z,16.28
2022-09-09T05:16:29.922Z,16.31
2022-09-09T05:18:56.924Z,15.00
2022-09-09T05:21:27.531Z,16.33
2022-09-09T05:23:54.079Z,15.36
2022-09-09T05:26:22.734Z,14.89
2022-09-09T05:28:51.640Z,16.10
2022-09-09T05:31:19.319Z,16.37
2022-09-09T05:33:50.530Z,16.39
2022-09-09T05:36:22.997Z,16.37
2022-09-09T05:38:56.837Z,15.33
2022-09-09T05:41:25.899Z,15.54
2022-09-09T05:43:55.434Z,16.14
2022-09-09T05:46:24.991Z,15.94
2022-09-09T05:48:54.408Z,15.43
2022-09-09T05:51:29.034Z,16.51
2022-09-09T05:53:59.473Z,16.56
2022-09-09T05:56:30.026Z,16.62
2022-09-09T05:58:58.511Z,15.66
2022-09-09T06:01:30.940Z,16.75
2022-09-09T06:03:58.502Z,16.14
2022-09-09T06:06:33.702Z,16.94
2022-09-09T06:09:00.734Z,15.99
2022-09-09T06:11:37.179Z,16.01
2022-09-09T06:14:04.633Z,16.60
2022-09-09T06:16:33.802Z,17.26
2022-09-09T06:19:01.985Z,17.12
2022-09-09T06:21:33.715Z,16.17
2022-09-09T06:24:03.927Z,17.37
2022-09-09T06:26:37.671Z,17.24
2022-09-09T06:29:05.426Z,16.52
2022-09-09T06:31:35.293Z,17.78
2022-09-09T06:34:09.699Z,17.71
2022-09-09T06:36:40.538Z,18.76
2022-09-09T06:39:13.628Z,19.10
2022-09-09T06:41:42.766Z,21.07
2022-09-09T06:44:20.209Z,21.75
2022-09-09T06:46:50.791Z,21.11
2022-09-09T06:49:17.470Z,20.02
2022-09-09T06:51:44.670Z,21.75
2022-09-09T06:54:13.630Z,23.57
2022-09-09T06:56:44.550Z,24.43
2022-09-09T06:59:21.569Z,25.18
2022-09-09T07:01:53.567Z,25.85
2022-09-09T07:04:22.675Z,26.87
2022-09-09T07:06:49.693Z,26.93
2022-09-09T07:09:21.742Z,27.11
2022-09-09T07:11:55.229Z,28.69
2022-09-09T07:14:23.736Z,26.92
2022-09-09T07:17:02.686Z,29.32
2022-09-09T07:19:36.193Z,29.55
2022-09-09T07:22:04.672Z,29.24
2022-09-09T07:24:31.777Z,29.66
2022-09-09T07:26:59.499Z,29.90
2022-09-09T07:29:27.019Z,30.25
2022-09-09T07:31:54.048Z,30.12
2022-09-09T07:34:29.924Z,30.78
2022-09-09T07:36:58.395Z,30.34
2022-09-09T07:39:25.476Z,29.29
2022-09-09T07:41:55.900Z,30.10
2022-09-09T07:44:26.037Z,30.17
2022-09-09T07:47:06.984Z,30.62
2022-09-09T07:49:37.535Z,29.27
2022-09-09T07:54:40.471Z,26.71
2022-09-09T07:57:07.680Z,25.98
2022-09-09T07:59:36.322Z,24.23
2022-09-09T08:02:03.923Z,24.41
2022-09-09T08:04:33.099Z,23.92
2022-09-09T08:07:02.135Z,23.26
2022-09-09T08:09:33.302Z,23.14
2022-09-09T08:12:08.053Z,22.20
2022-09-09T08:14:37.573Z,21.12
2022-09-09T08:17:04.335Z,22.19
2022-09-09T08:19:35.131Z,22.10
2022-09-09T08:22:04.951Z,21.04
2022-09-09T08:24:33.348Z,21.85
2022-09-09T08:27:00.343Z,21.88
2022-09-09T08:29:29.303Z,22.02
2022-09-09T08:31:58.740Z,21.84
2022-09-09T08:34:28.062Z,22.67
2022-09-09T08:36:56.954Z,22.59
2022-09-09T08:39:29.971Z,24.30
2022-09-09T08:42:01.304Z,24.69
2022-09-09T08:44:35.597Z,24.74
2022-09-09T08:47:22.959Z,23.82
2022-09-09T08:50:25.395Z,23.13
2022-09-09T08:53:06.935Z,22.19
2022-09-09T08:55:55.737Z,21.46
2022-09-09T08:58:49.968Z,22.68
2022-09-09T09:01:36.319Z,22.66
2022-09-09T09:04:29.010Z,21.97
2022-09-09T09:07:42.907Z,22.68
2022-09-09T09:10:41.105Z,23.22
2022-09-09T09:13:27.333Z,22.14
2022-09-09T09:16:06.169Z,23.48
2022-09-09T09:18:34.916Z,22.93
2022-09-09T09:21:08.114Z,23.13
2022-09-09T09:23:44.555Z,22.79
2022-09-09T09:26:14.106Z,22.65
2022-09-09T09:28:42.495Z,22.26
2022-09-09T09:31:18.755Z,22.09
2022-09-09T09:33:51.275Z,20.90
2022-09-09T09:36:24.551Z,20.89
2022-09-09T09:41:49.875Z,21.66
2022-09-09T09:44:28.353Z,22.76
2022-09-09T09:47:13.507Z,22.40
2022-09-09T09:50:00.820Z,22.17
2022-09-09T09:52:35.648Z,21.34
2022-09-09T09:55:07.741Z,21.97
2022-09-09T09:57:36.528Z,22.67
2022-09-09T10:00:21.363Z,22.53
2022-09-09T10:02:58.184Z,23.19
2022-09-09T10:05:35.845Z,23.12
2022-09-09T10:08:14.089Z,23.70
2022-09-09T10:10:59.178Z,23.52
2022-09-09T10:13:25.690Z,23.08
2022-09-09T10:16:05.353Z,22.37
2022-09-09T10:18:55.972Z,22.62
2022-09-09T10:21:37.823Z,22.62
2022-09-09T10:24:11.169Z,22.30
2022-09-09T10:26:53.900Z,22.36
2022-09-09T10:29:33.103Z,22.15
2022-09-09T10:32:27.407Z,22.16
2022-09-09T10:35:06.780Z,22.58
2022-09-09T10:38:00.404Z,22.90
2022-09-09T10:40:45.555Z,23.39
2022-09-09T10:43:15.213Z,23.67
2022-09-09T10:46:04.306Z,23.67
2022-09-09T10:49:08.612Z,23.34
2022-09-09T10:51:53.009Z,23.35
2022-09-09T10:54:22.367Z,24.09
2022-09-09T10:56:59.689Z,23.09
2022-09-09T10:59:36.178Z,22.70
2022-09-09T11:02:24.123Z,23.07
2022-09-09T11:05:04.847Z,22.63
2022-09-09T11:07:41.997Z,22.79
2022-09-09T11:10:20.678Z,22.51
2022-09-09T11:12:52.264Z,23.45
2022-09-09T11:15:29.755Z,23.85
2022-09-09T11:18:04.238Z,23.58
2022-09-09T11:20:33.099Z,23.52
2022-09-09T11:23:11.015Z,22.31
2022-09-09T11:25:45.031Z,23.14
2022-09-09T11:28:16.469Z,22.79
2022-09-09T11:31:08.574Z,22.80
2022-09-09T11:33:54.032Z,23.16
2022-09-09T11:37:01.822Z,23.16
2022-09-09T11:39:40.371Z,23.25
2022-09-09T11:42:12.951Z,22.81
2022-09-09T11:44:39.627Z,21.82
2022-09-09T11:47:20.177Z,23.47
2022-09-09T11:49:46.839Z,23.72
2022-09-09T11:52:42.760Z,23.94
2022-09-09T11:55:13.158Z,23.87
2022-09-09T11:57:40.116Z,22.90
2022-09-09T12:00:12.045Z,23.88
2022-09-09T12:02:50.709Z,23.67
2022-09-09T12:05:21.169Z,22.48
2022-09-09T12:07:50.850Z,22.88
2022-09-09T12:10:27.129Z,22.54
2022-09-09T12:12:54.020Z,21.64
2022-09-09T12:15:29.974Z,22.17
2022-09-09T12:18:03.180Z,22.26
2022-09-09T12:20:52.920Z,22.33
2022-09-09T12:23:32.070Z,22.57
2022-09-09T12:26:16.674Z,22.88
2022-09-09T12:29:00.744Z,22.16
2022-09-09T12:31:45.695Z,22.06
2022-09-09T12:34:19.476Z,22.35
2022-09-09T12:36:54.115Z,23.06
2022-09-09T12:39:32.909Z,23.14
2022-09-09T12:41:59.627Z,22.85
2022-09-09T12:44:29.616Z,22.62
2022-09-09T12:47:00.342Z,22.53
2022-09-09T12:49:40.185Z,21.52
2022-09-09T12:52:19.040Z,22.48
2022-09-09T12:54:48.092Z,22.54
2022-09-09T12:57:15.938Z,23.46
2022-09-09T12:59:46.306Z,24.04
2022-09-09T13:02:20.912Z,24.33
2022-09-09T13:04:48.133Z,24.20
2022-09-09T13:07:17.278Z,23.89
2022-09-09T13:09:45.660Z,23.36
2022-09-09T13:12:26.382Z,23.16
2022-09-09T13:14:56.004Z,23.09
2022-09-09T13:17:25.127Z,23.05
2022-09-09T13:19:54.847Z,23.30
2022-09-09T13:22:30.259Z,23.03
2022-09-09T13:25:08.055Z,22.30
2022-09-09T13:27:39.892Z,23.28
2022-09-09T13:30:27.167Z,23.71
2022-09-09T13:33:11.996Z,23.64
2022-09-09T13:35:48.076Z,23.75
2022-09-09T13:38:16.884Z,22.87
2022-09-09T13:41:05.999Z,22.57
2022-09-09T13:43:39.304Z,22.77
2022-09-09T13:46:27.099Z,23.13
2022-09-09T13:49:19.683Z,24.69
2022-09-09T13:51:50.776Z,23.57
2022-09-09T13:54:20.022Z,24.86
2022-09-09T13:56:47.426Z,23.75
2022-09-09T13:59:16.623Z,23.24
2022-09-09T14:01:43.548Z,22.03
2022-09-09T14:04:11.417Z,22.85
2022-09-09T14:06:39.175Z,22.83
2022-09-09T14:09:14.735Z,22.67
2022-09-09T14:11:42.084Z,22.57
2022-09-09T14:14:08.714Z,21.02
2022-09-09T14:16:35.686Z,21.91
2022-09-09T14:19:02.345Z,22.21
2022-09-09T14:21:29.511Z,22.07
2022-09-09T14:23:59.012Z,20.63
2022-09-09T14:26:26.895Z,21.49
2022-09-09T14:28:55.987Z,21.11
2022-09-09T14:31:24.225Z,21.13
2022-09-09T14:33:52.307Z,19.85
2022-09-09T14:36:19.335Z,20.93
2022-09-09T14:38:46.079Z,20.56
2022-09-09T14:41:17.838Z,18.50
2022-09-09T14:43:44.859Z,18.77
2022-09-09T14:46:14.325Z,18.79
2022-09-09T14:48:45.221Z,19.44
2022-09-09T14:51:17.302Z,18.73
2022-09-09T14:53:45.259Z,18.29
2022-09-09T14:56:13.441Z,19.51
2022-09-09T14:58:40.237Z,19.05
2022-09-09T15:01:11.906Z,19.90
2022-09-09T15:03:40.375Z,19.16
2022-09-09T15:06:17.286Z,20.02
2022-09-09T15:08:45.410Z,20.59
2022-09-09T15:11:13.518Z,20.31
2022-09-09T15:13:42.177Z,20.09
2022-09-09T15:16:17.032Z,20.90
2022-09-09T15:18:46.968Z,20.97
2022-09-09T15:21:16.474Z,21.01
2022-09-09T15:23:43.443Z,21.13
2022-09-09T15:26:11.120Z,21.08
2022-09-09T15:28:39.509Z,21.07
2022-09-09T15:31:10.154Z,20.33
2022-09-09T15:33:39.652Z,20.30
2022-09-09T15:36:20.430Z,20.73
2022-09-09T15:38:47.263Z,20.32
2022-09-09T15:41:14.950Z,20.09
2022-09-09T15:43:46.944Z,20.45
2022-09-09T15:46:34.377Z,20.30
2022-09-09T15:49:05.879Z,20.01
2022-09-09T15:51:48.207Z,20.09
2022-09-09T15:54:21.796Z,19.26
2022-09-09T15:56:52.192Z,18.87
2022-09-09T15:59:19.506Z,17.36
2022-09-09T16:01:47.486Z,19.15
2022-09-09T16:04:14.307Z,18.62
2022-09-09T16:06:41.012Z,19.13
2022-09-09T16:09:08.678Z,19.22
2022-09-09T16:11:38.152Z,19.01
2022-09-09T16:14:06.323Z,18.99
2022-09-09T16:16:33.852Z,18.18
2022-09-09T16:19:04.308Z,19.14
2022-09-09T16:21:33.333Z,18.16
2022-09-09T16:24:02.198Z,19.27
2022-09-09T16:26:31.687Z,18.33
2022-09-09T16:29:02.111Z,19.07
2022-09-09T16:31:30.345Z,18.72
2022-09-09T16:33:57.134Z,17.44
2022-09-09T16:36:30.950Z,19.38
2022-09-09T16:39:00.415Z,19.45
2022-09-09T16:41:28.894Z,19.44
2022-09-09T16:44:00.383Z,18.54
2022-09-09T16:46:29.294Z,18.22
2022-09-09T16:49:01.143Z,19.69
2022-09-09T16:51:36.617Z,19.31
2022-09-09T16:54:09.581Z,19.63
2022-09-09T16:56:42.127Z,19.40
2022-09-09T16:59:23.454Z,18.49
2022-09-09T17:01:59.292Z,15.12
2022-09-09T17:04:39.398Z,14.06
2022-09-09T17:09:56.309Z,17.28
2022-09-09T17:12:34.437Z,15.17
2022-09-09T17:15:05.033Z,17.76
2022-09-09T17:17:50.642Z,14.18
2022-09-09T17:20:17.663Z,13.00
2022-09-09T17:22:44.242Z,18.07
2022-09-09T17:25:10.944Z,18.43
2022-09-09T17:27:37.977Z,18.03
2022-09-09T17:30:05.411Z,17.52
2022-09-09T17:32:32.071Z,17.41
2022-09-09T17:34:59.245Z,17.86
2022-09-09T17:37:25.847Z,16.67
2022-09-09T17:39:52.603Z,17.59
2022-09-09T17:42:20.209Z,17.37
2022-09-09T17:44:46.850Z,17.95
2022-09-09T17:47:13.387Z,17.91
2022-09-09T17:49:41.540Z,17.57
2022-09-09T17:52:08.110Z,17.46
2022-09-09T17:54:35.052Z,17.77
2022-09-09T17:57:01.701Z,17.53
2022-09-09T17:59:28.343Z,17.34
2022-09-09T18:01:55.480Z,17.75
2022-09-09T18:04:22.353Z,17.71
2022-09-09T18:06:51.304Z,16.04
2022-09-09T18:09:20.783Z,16.95
2022-09-09T18:11:50.025Z,17.62
2022-09-09T18:14:22.648Z,17.56
2022-09-09T18:16:55.942Z,17.52
2022-09-09T18:19:25.672Z,16.88
2022-09-09T18:21:54.126Z,17.64
2022-09-09T18:24:26.187Z,17.49
2022-09-09T18:26:56.919Z,17.05
2022-09-09T18:29:27.536Z,17.17
2022-09-09T18:31:55.362Z,16.52
2022-09-09T18:34:23.444Z,16.71
2022-09-09T18:36:54.506Z,16.80
2022-09-09T18:39:24.887Z,16.50
2022-09-09T18:41:54.011Z,17.09
2022-09-09T18:44:23.824Z,16.90
2022-09-09T18:46:52.435Z,16.98
2022-09-09T18:49:24.518Z,16.56
2022-09-09T18:51:52.271Z,16.91
2022-09-09T18:54:24.597Z,16.20
2022-09-09T18:56:53.091Z,16.73
2022-09-09T18:59:23.807Z,16.37
2022-09-09T19:01:52.467Z,15.71
2022-09-09T19:04:19.724Z,16.61
2022-09-09T19:06:48.298Z,16.51
2022-09-09T19:09:17.486Z,16.42
2022-09-09T19:11:44.863Z,16.08
2022-09-09T19:14:15.285Z,15.45
2022-09-09T19:16:42.178Z,15.44
2022-09-09T19:19:19.178Z,15.08
2022-09-09T19:21:48.055Z,15.98
2022-09-09T19:24:21.168Z,13.45
2022-09-09T19:26:52.173Z,13.20
2022-09-09T19:29:26.692Z,15.15
2022-09-09T19:32:29.696Z,15.19
2022-09-09T19:34:44.251Z,15.94
2022-09-09T19:37:17.656Z,12.94
2022-09-09T19:39:46.820Z,15.91
2022-09-09T19:42:13.928Z,14.79
2022-09-09T19:44:41.393Z,15.90
2022-09-09T19:47:07.982Z,15.87
2022-09-09T19:49:35.236Z,15.62
2022-09-09T19:52:02.136Z,15.59
2022-09-09T19:54:28.956Z,14.99
2022-09-09T19:56:57.186Z,14.06
2022-09-09T19:59:24.006Z,13.06
2022-09-09T20:01:51.624Z,15.49
2022-09-09T20:04:18.826Z,15.96
2022-09-09T20:06:48.634Z,15.91
2022-09-09T20:09:20.395Z,15.88
2022-09-09T20:11:49.001Z,14.47
2022-09-09T20:14:17.194Z,15.86
2022-09-09T20:16:45.861Z,14.79
2022-09-09T20:19:16.360Z,13.58
2022-09-09T20:21:47.849Z,15.08
2022-09-09T20:24:18.631Z,16.05
2022-09-09T20:26:48.973Z,15.68
2022-09-09T20:29:19.315Z,15.57
2022-09-09T20:31:47.221Z,14.81
2022-09-09T20:34:19.386Z,15.50
2022-09-09T20:36:46.737Z,12.99
2022-09-09T20:39:16.215Z,16.18
2022-09-09T20:41:47.873Z,15.85
2022-09-09T20:44:23.977Z,16.21
2022-09-09T20:46:55.255Z,16.19
2022-09-09T20:49:24.104Z,16.24
2022-09-09T20:51:51.926Z,16.28
2022-09-09T20:54:26.365Z,12.34
2022-09-09T20:56:55.387Z,15.12
2022-09-09T20:59:28.527Z,15.77
2022-09-09T21:01:57.022Z,15.32
2022-09-09T21:04:25.259Z,14.54
2022-09-09T21:06:52.473Z,14.87
2022-09-09T21:09:20.366Z,15.21
2022-09-09T21:11:47.339Z,14.50
2022-09-09T21:14:14.898Z,15.74
2022-09-09T21:16:41.989Z,14.24
2022-09-09T21:19:09.473Z,12.11
2022-09-09T21:21:37.569Z,14.92
2022-09-09T21:24:04.717Z,12.34
2022-09-09T21:26:35.431Z,14.68
2022-09-09T21:29:03.105Z,13.63
2022-09-09T21:31:29.804Z,15.55
2022-09-09T21:33:57.781Z,14.22
2022-09-09T21:36:25.510Z,15.51
2022-09-09T21:38:52.207Z,14.04
2022-09-09T21:41:19.258Z,14.18
2022-09-09T21:43:53.113Z,15.46
2022-09-09T21:46:20.531Z,14.72
2022-09-09T21:48:47.288Z,13.09
2022-09-09T21:51:16.734Z,15.40
2022-09-09T21:53:43.522Z,14.28
2022-09-09T21:56:12.927Z,15.30
2022-09-09T21:58:41.144Z,14.53
2022-09-09T22:01:13.094Z,14.52
2022-09-09T22:03:40.537Z,14.98
2022-09-09T22:06:10.735Z,11.55
2022-09-09T22:08:37.650Z,15.33
2022-09-09T22:11:32.844Z,15.55
2022-09-09T22:14:01.095Z,15.53
2022-09-09T22:16:27.820Z,14.18
2022-09-09T22:18:57.303Z,14.82
2022-09-09T22:21:30.781Z,15.40
2022-09-09T22:23:59.966Z,15.55
2022-09-09T22:26:31.468Z,15.16
2022-09-09T22:28:59.377Z,13.01
2022-09-09T22:31:27.192Z,15.43
2022-09-09T22:33:54.712Z,15.34
2022-09-09T22:36:21.696Z,13.91
2022-09-09T22:38:49.706Z,14.52
2022-09-09T22:41:17.269Z,13.96
2022-09-09T22:43:45.235Z,14.27
2022-09-09T22:46:12.468Z,15.12
2022-09-09T22:48:39.676Z,15.14
2022-09-09T22:51:10.268Z,15.11
2022-09-09T22:53:37.576Z,13.76
2022-09-09T22:56:07.049Z,15.08
2022-09-09T22:58:39.792Z,15.07
2022-09-09T23:01:16.350Z,14.45
2022-09-09T23:03:46.078Z,15.15
2022-09-09T23:06:23.655Z,13.45
2022-09-09T23:08:56.623Z,15.07
2022-09-09T23:11:28.024Z,14.12
2022-09-09T23:13:55.930Z,15.22
2022-09-09T23:16:28.578Z,14.37
2022-09-09T23:18:55.810Z,15.16
2022-09-09T23:21:26.344Z,13.01
2022-09-09T23:23:55.260Z,13.51
2022-09-09T23:26:23.993Z,15.08
2022-09-09T23:28:52.418Z,13.30
2022-09-09T23:31:22.443Z,15.08
2022-09-09T23:33:49.471Z,15.15
2022-09-09T23:36:18.728Z,15.22
2022-09-09T23:38:46.254Z,12.24
2022-09-09T23:41:15.484Z,14.12
2022-09-09T23:43:44.965Z,15.31
2022-09-09T23:46:15.163Z,14.52
2022-09-09T23:48:42.805Z,14.90
